createdAt,value
2023-02-03T15:30:09.587Z,1012.79
2023-02-03T15:30:15.661Z,1012.76
2023-02-03T15:30:20.795Z,1012.79
2023-02-03T15:30:25.881Z,1012.79
2023-02-03T15:30:30.943Z,1012.82
2023-02-03T15:30:36.079Z,1012.84
2023-02-03T15:30:41.295Z,1012.86
2023-02-03T15:30:46.375Z,1012.86
2023-02-03T15:30:51.555Z,1012.86
2023-02-03T15:30:56.694Z,1012.87
2023-02-03T15:31:01.809Z,1012.87
2023-02-03T15:31:12.250Z,1012.85
2023-02-03T15:31:22.374Z,1012.86
2023-02-03T15:31:32.651Z,1012.86
2023-02-03T15:31:42.879Z,1012.86
2023-02-03T15:31:53.022Z,1012.86
2023-02-03T15:32:03.356Z,1012.83
2023-02-03T15:32:13.590Z,1012.85
2023-02-03T15:32:23.840Z,1012.86
2023-02-03T15:32:34.074Z,1012.86
2023-02-03T15:32:44.316Z,1012.85
2023-02-03T15:32:54.532Z,1012.86
2023-02-03T15:32:59.631Z,1012.86
2023-02-03T15:33:09.857Z,1012.86
2023-02-03T15:33:20.098Z,1012.86
2023-02-03T15:33:30.324Z,1012.87
2023-02-03T15:33:40.529Z,1012.88
2023-02-03T15:33:50.766Z,1012.87
2023-02-03T15:34:00.973Z,1012.86
2023-02-03T15:34:11.210Z,1012.85
2023-02-03T15:34:21.374Z,1012.86
2023-02-03T15:34:31.593Z,1012.86
2023-02-03T15:34:41.822Z,1012.87
2023-02-03T15:34:52.057Z,1012.88
2023-02-03T15:35:02.286Z,1012.87
2023-02-03T15:35:12.585Z,1012.87
2023-02-03T15:35:22.817Z,1012.87
2023-02-03T15:35:33.042Z,1012.87
2023-02-03T15:35:43.268Z,1012.87
2023-02-03T15:35:53.495Z,1012.87
2023-02-03T15:36:03.722Z,1012.87
2023-02-03T15:36:13.947Z,1012.86
2023-02-03T15:36:24.169Z,1012.86
2023-02-03T15:36:34.402Z,1012.86
2023-02-03T15:36:44.658Z,1012.86
2023-02-03T15:36:49.732Z,1012.86
2023-02-03T15:36:59.962Z,1012.86
2023-02-03T15:37:10.210Z,1012.86
2023-02-03T15:37:20.460Z,1012.87
2023-02-03T15:37:30.698Z,1012.89
2023-02-03T15:37:41.059Z,1012.90
2023-02-03T15:37:51.164Z,1012.91
2023-02-03T15:38:01.421Z,1012.91
2023-02-03T15:38:11.684Z,1012.91
2023-02-03T15:38:21.939Z,1012.90
2023-02-03T15:38:32.173Z,1012.90
2023-02-03T15:38:42.403Z,1012.88
2023-02-03T15:38:52.649Z,1012.84
2023-02-03T15:39:02.887Z,1012.83
2023-02-03T15:39:13.128Z,1012.83
2023-02-03T15:39:23.374Z,1012.83
2023-02-03T15:39:33.596Z,1012.84
2023-02-03T15:39:43.812Z,1012.85
2023-02-03T15:39:54.058Z,1012.85
2023-02-03T15:40:04.285Z,1012.84
2023-02-03T15:40:14.529Z,1012.83
2023-02-03T15:40:19.611Z,1012.83
2023-02-03T15:40:29.829Z,1012.85
2023-02-03T15:40:40.060Z,1012.86
2023-02-03T15:40:50.284Z,1012.87
2023-02-03T15:41:00.565Z,1012.88
2023-02-03T15:41:10.797Z,1012.87
2023-02-03T15:41:21.028Z,1012.88
2023-02-03T15:41:31.257Z,1012.88
2023-02-03T15:41:41.497Z,1012.90
2023-02-03T15:41:51.708Z,1012.92
2023-02-03T15:42:01.940Z,1012.92
2023-02-03T15:42:12.173Z,1012.91
2023-02-03T15:42:22.397Z,1012.90
2023-02-03T15:42:32.583Z,1012.91
2023-02-03T15:42:42.847Z,1012.89
2023-02-03T15:42:53.056Z,1012.88
2023-02-03T15:43:03.286Z,1012.86
2023-02-03T15:43:13.520Z,1012.84
2023-02-03T15:43:23.742Z,1012.86
2023-02-03T15:43:33.976Z,1012.87
2023-02-03T15:43:44.184Z,1012.87
2023-02-03T15:43:54.428Z,1012.86
2023-02-03T15:44:04.652Z,1012.87
2023-02-03T15:44:09.740Z,1012.87
2023-02-03T15:44:19.987Z,1012.87
2023-02-03T15:44:30.227Z,1012.88
2023-02-03T15:44:40.471Z,1012.88
2023-02-03T15:44:50.713Z,1012.89
2023-02-03T15:45:00.961Z,1012.89
2023-02-03T15:45:11.199Z,1012.89
2023-02-03T15:45:21.438Z,1012.90
2023-02-03T15:45:32.103Z,1012.90
2023-02-03T15:45:42.042Z,1012.91
2023-02-03T15:45:52.273Z,1012.92
2023-02-03T15:46:02.533Z,1012.90
2023-02-03T15:46:12.825Z,1012.88
2023-02-03T15:46:22.997Z,1012.87
2023-02-03T15:46:33.359Z,1012.88
2023-02-03T15:46:43.615Z,1012.87
2023-02-03T15:46:53.892Z,1012.87
2023-02-03T15:47:04.040Z,1012.90
2023-02-03T15:47:14.208Z,1012.92
2023-02-03T15:47:24.435Z,1012.93
2023-02-03T15:47:34.696Z,1012.94
2023-02-03T15:47:39.771Z,1012.94
2023-02-03T15:47:50.004Z,1012.94
2023-02-03T15:48:00.224Z,1012.93
2023-02-03T15:48:10.408Z,1012.91
2023-02-03T15:48:20.645Z,1012.90
2023-02-03T15:48:30.852Z,1012.92
2023-02-03T15:48:41.083Z,1012.94
2023-02-03T15:48:51.305Z,1012.95
2023-02-03T15:49:01.489Z,1012.96
2023-02-03T15:49:11.716Z,1012.96
2023-02-03T15:49:21.946Z,1012.97
2023-02-03T15:49:32.117Z,1012.97
2023-02-03T15:49:42.334Z,1012.97
2023-02-03T15:49:52.590Z,1012.98
2023-02-03T15:50:02.828Z,1012.99
2023-02-03T15:50:13.000Z,1013.00
2023-02-03T15:50:23.248Z,1012.98
2023-02-03T15:50:33.425Z,1012.96
2023-02-03T15:50:43.657Z,1012.95
2023-02-03T15:50:53.911Z,1012.99
2023-02-03T15:51:04.159Z,1012.99
2023-02-03T15:51:14.367Z,1012.96
2023-02-03T15:51:24.603Z,1012.94
2023-02-03T15:51:29.680Z,1012.95
2023-02-03T15:51:39.914Z,1012.95
2023-02-03T15:51:50.145Z,1012.95
2023-02-03T15:52:00.376Z,1012.96
2023-02-03T15:52:10.599Z,1012.98
2023-02-03T15:52:20.832Z,1012.98
2023-02-03T15:52:31.093Z,1012.98
2023-02-03T15:52:41.331Z,1012.98
2023-02-03T15:52:51.568Z,1012.97
2023-02-03T15:53:01.805Z,1012.97
2023-02-03T15:53:12.036Z,1012.97
2023-02-03T15:53:22.268Z,1012.96
2023-02-03T15:53:45.384Z,1012.95
2023-02-03T15:53:51.564Z,1012.94
2023-02-03T15:53:56.256Z,1012.91
2023-02-03T15:54:01.344Z,1012.91
2023-02-03T15:54:11.561Z,1012.93
2023-02-03T15:54:21.796Z,1012.93
2023-02-03T15:54:32.051Z,1012.95
2023-02-03T15:54:42.313Z,1012.94
2023-02-03T15:54:52.556Z,1012.95
2023-02-03T15:55:02.805Z,1012.96
2023-02-03T15:55:13.052Z,1012.96
2023-02-03T15:55:23.293Z,1012.97
2023-02-03T15:55:33.663Z,1012.96
2023-02-03T15:55:43.776Z,1012.94
2023-02-03T15:55:54.007Z,1012.93
2023-02-03T15:56:04.222Z,1012.93
2023-02-03T15:56:14.461Z,1012.91
2023-02-03T15:56:24.699Z,1012.90
2023-02-03T15:56:29.784Z,1012.89
2023-02-03T15:56:40.019Z,1012.88
2023-02-03T15:56:50.265Z,1012.88
2023-02-03T15:57:00.466Z,1012.87
2023-02-03T15:57:10.693Z,1012.87
2023-02-03T15:57:20.908Z,1012.87
2023-02-03T15:57:31.140Z,1012.89
2023-02-03T15:57:41.365Z,1012.87
2023-02-03T15:57:51.584Z,1012.88
2023-02-03T15:58:01.842Z,1012.89
2023-02-03T15:58:12.060Z,1012.90
2023-02-03T15:58:22.298Z,1012.92
2023-02-03T15:58:32.513Z,1012.92
2023-02-03T15:58:42.780Z,1012.93
2023-02-03T15:58:53.016Z,1012.92
2023-02-03T15:59:03.236Z,1012.93
2023-02-03T15:59:13.447Z,1012.94
2023-02-03T15:59:23.676Z,1012.96
2023-02-03T15:59:33.881Z,1012.96
2023-02-03T15:59:44.120Z,1012.95
2023-02-03T15:59:54.289Z,1012.91
2023-02-03T16:00:04.645Z,1012.91
2023-02-03T16:00:09.632Z,1012.92
2023-02-03T16:00:19.878Z,1012.94
2023-02-03T16:00:30.097Z,1012.93
2023-02-03T16:00:40.319Z,1012.93
2023-02-03T16:00:50.568Z,1012.95
2023-02-03T16:01:00.754Z,1012.95
2023-02-03T16:01:10.999Z,1012.94
2023-02-03T16:01:21.284Z,1012.95
2023-02-03T16:01:31.545Z,1012.93
2023-02-03T16:01:41.755Z,1012.93
2023-02-03T16:01:52.034Z,1012.92
2023-02-03T16:02:02.356Z,1012.90
2023-02-03T16:02:12.517Z,1012.88
2023-02-03T16:02:22.662Z,1012.87
2023-02-03T16:02:32.911Z,1012.86
2023-02-03T16:02:43.233Z,1012.85
2023-02-03T16:02:53.445Z,1012.83
2023-02-03T16:03:03.691Z,1012.85
2023-02-03T16:03:13.971Z,1012.84
2023-02-03T16:03:24.097Z,1012.83
2023-02-03T16:03:34.327Z,1012.87
2023-02-03T16:03:44.572Z,1012.90
2023-02-03T16:03:49.670Z,1012.89
2023-02-03T16:03:59.909Z,1012.89
2023-02-03T16:04:10.065Z,1012.90
2023-02-03T16:04:20.229Z,1012.89
2023-02-03T16:04:30.471Z,1012.89
2023-02-03T16:04:40.693Z,1012.89
2023-02-03T16:04:50.925Z,1012.90
2023-02-03T16:05:01.195Z,1012.91
2023-02-03T16:05:11.405Z,1012.90
2023-02-03T16:05:21.637Z,1012.91
2023-02-03T16:05:32.469Z,1012.92
2023-02-03T16:05:42.399Z,1012.92
2023-02-03T16:05:52.643Z,1012.92
2023-02-03T16:06:02.860Z,1012.95
2023-02-03T16:06:13.083Z,1012.95
2023-02-03T16:06:25.361Z,1012.92
2023-02-03T16:06:30.171Z,1012.93
2023-02-03T16:06:40.424Z,1012.94
2023-02-03T16:06:50.689Z,1012.94
2023-02-03T16:07:00.884Z,1012.94
2023-02-03T16:07:11.127Z,1012.94
2023-02-03T16:07:21.364Z,1012.93
2023-02-03T16:07:31.598Z,1012.94
2023-02-03T16:07:41.816Z,1012.91
2023-02-03T16:07:52.067Z,1012.89
2023-02-03T16:08:02.289Z,1012.88
2023-02-03T16:08:12.511Z,1012.87
2023-02-03T16:08:22.747Z,1012.86
2023-02-03T16:08:32.980Z,1012.88
2023-02-03T16:08:43.208Z,1012.90
2023-02-03T16:08:53.435Z,1012.90
2023-02-03T16:09:03.673Z,1012.92
2023-02-03T16:09:13.910Z,1012.91
2023-02-03T16:09:24.139Z,1012.94
2023-02-03T16:09:34.390Z,1012.96
2023-02-03T16:09:44.627Z,1012.92
2023-02-03T16:09:49.723Z,1012.91
2023-02-03T16:09:59.960Z,1012.90
2023-02-03T16:10:10.176Z,1012.92
2023-02-03T16:10:20.402Z,1012.93
2023-02-03T16:10:30.622Z,1012.94
2023-02-03T16:10:40.796Z,1012.92
2023-02-03T16:10:51.015Z,1012.90
2023-02-03T16:11:01.231Z,1012.88
2023-02-03T16:11:11.456Z,1012.88
2023-02-03T16:11:21.694Z,1012.87
2023-02-03T16:11:31.912Z,1012.86
2023-02-03T16:11:42.130Z,1012.87
2023-02-03T16:11:54.590Z,1012.84
2023-02-03T16:12:00.445Z,1012.82
2023-02-03T16:12:10.649Z,1012.83
2023-02-03T16:12:20.817Z,1012.85
2023-02-03T16:12:31.042Z,1012.85
2023-02-03T16:12:41.271Z,1012.87
2023-02-03T16:12:51.500Z,1012.87
2023-02-03T16:13:01.732Z,1012.87
2023-02-03T16:13:11.959Z,1012.87
2023-02-03T16:13:22.183Z,1012.85
2023-02-03T16:13:32.414Z,1012.85
2023-02-03T16:13:42.619Z,1012.84
2023-02-03T16:13:52.854Z,1012.83
2023-02-03T16:14:03.093Z,1012.84
2023-02-03T16:14:13.293Z,1012.85
2023-02-03T16:14:23.515Z,1012.85
2023-02-03T16:14:33.732Z,1012.85
2023-02-03T16:14:43.941Z,1012.85
2023-02-03T16:14:54.167Z,1012.85
2023-02-03T16:15:04.407Z,1012.85
2023-02-03T16:15:14.630Z,1012.84
2023-02-03T16:15:19.721Z,1012.84
2023-02-03T16:15:30.323Z,1012.84
2023-02-03T16:15:40.371Z,1012.84
2023-02-03T16:15:50.584Z,1012.83
2023-02-03T16:16:00.920Z,1012.83
2023-02-03T16:16:11.070Z,1012.85
2023-02-03T16:16:21.369Z,1012.87
2023-02-03T16:16:31.586Z,1012.87
2023-02-03T16:16:47.177Z,1012.86
2023-02-03T16:17:05.489Z,1012.83
2023-02-03T16:17:10.732Z,1012.87
2023-02-03T16:17:17.252Z,1012.87
2023-02-03T16:17:21.959Z,1012.88
2023-02-03T16:17:32.203Z,1012.87
2023-02-03T16:17:42.439Z,1012.85
2023-02-03T16:17:52.660Z,1012.87
2023-02-03T16:18:02.885Z,1012.84
2023-02-03T16:18:13.099Z,1012.87
2023-02-03T16:18:23.303Z,1012.88
2023-02-03T16:18:33.532Z,1012.88
2023-02-03T16:18:43.763Z,1012.89
2023-02-03T16:18:54.020Z,1012.88
2023-02-03T16:19:04.245Z,1012.87
2023-02-03T16:19:14.435Z,1012.84
2023-02-03T16:19:24.652Z,1012.81
2023-02-03T16:19:29.726Z,1012.82
2023-02-03T16:19:39.936Z,1012.83
2023-02-03T16:19:50.160Z,1012.82
2023-02-03T16:20:00.381Z,1012.81
2023-02-03T16:20:10.617Z,1012.81
2023-02-03T16:20:20.840Z,1012.80
2023-02-03T16:20:31.065Z,1012.80
2023-02-03T16:20:41.306Z,1012.81
2023-02-03T16:20:51.538Z,1012.81
2023-02-03T16:21:01.775Z,1012.81
2023-02-03T16:21:11.977Z,1012.78
2023-02-03T16:21:22.203Z,1012.76
2023-02-03T16:21:32.407Z,1012.70
2023-02-03T16:21:42.573Z,1012.69
2023-02-03T16:21:52.818Z,1012.71
2023-02-03T16:22:03.033Z,1012.73
2023-02-03T16:22:13.256Z,1012.74
2023-02-03T16:22:23.472Z,1012.76
2023-02-03T16:22:33.710Z,1012.75
2023-02-03T16:22:43.923Z,1012.74
2023-02-03T16:22:54.145Z,1012.73
2023-02-03T16:23:04.447Z,1012.72
2023-02-03T16:23:14.672Z,1012.71
2023-02-03T16:23:19.755Z,1012.71
2023-02-03T16:23:29.992Z,1012.73
2023-02-03T16:23:40.229Z,1012.73
2023-02-03T16:23:50.486Z,1012.73
2023-02-03T16:24:00.660Z,1012.70
2023-02-03T16:24:10.895Z,1012.72
2023-02-03T16:24:21.109Z,1012.71
2023-02-03T16:24:31.329Z,1012.70
2023-02-03T16:24:41.552Z,1012.69
2023-02-03T16:24:51.781Z,1012.69
2023-02-03T16:25:02.025Z,1012.69
2023-02-03T16:25:12.252Z,1012.71
2023-02-03T16:25:22.480Z,1012.72
2023-02-03T16:25:33.017Z,1012.71
2023-02-03T16:25:42.968Z,1012.70
2023-02-03T16:25:53.213Z,1012.69
2023-02-03T16:26:03.444Z,1012.70
2023-02-03T16:26:13.677Z,1012.67
2023-02-03T16:26:23.894Z,1012.66
2023-02-03T16:26:34.111Z,1012.66
2023-02-03T16:26:44.336Z,1012.64
2023-02-03T16:26:54.584Z,1012.61
2023-02-03T16:26:59.668Z,1012.61
2023-02-03T16:27:09.897Z,1012.61
2023-02-03T16:27:20.134Z,1012.62
2023-02-03T16:27:30.300Z,1012.62
2023-02-03T16:27:40.576Z,1012.64
2023-02-03T16:27:50.879Z,1012.63
2023-02-03T16:28:01.229Z,1012.66
2023-02-03T16:28:11.372Z,1012.63
2023-02-03T16:28:21.659Z,1012.64
2023-02-03T16:28:32.483Z,1012.62
2023-02-03T16:28:42.379Z,1012.60
2023-02-03T16:28:52.616Z,1012.62
2023-02-03T16:29:02.846Z,1012.64
2023-02-03T16:29:13.066Z,1012.66
2023-02-03T16:29:23.296Z,1012.67
2023-02-03T16:29:33.530Z,1012.66
2023-02-03T16:29:43.756Z,1012.66
2023-02-03T16:29:53.984Z,1012.68
2023-02-03T16:30:04.292Z,1012.69
2023-02-03T16:30:14.439Z,1012.66
2023-02-03T16:30:24.581Z,1012.64
2023-02-03T16:30:29.669Z,1012.63
2023-02-03T16:30:40.021Z,1012.59
2023-02-03T16:30:50.143Z,1012.58
2023-02-03T16:31:00.534Z,1012.56
2023-02-03T16:31:10.840Z,1012.56
2023-02-03T16:31:21.055Z,1012.58
2023-02-03T16:31:31.232Z,1012.59
2023-02-03T16:31:41.329Z,1012.61
2023-02-03T16:31:51.632Z,1012.62
2023-02-03T16:32:01.979Z,1012.61
2023-02-03T16:32:12.217Z,1012.61
2023-02-03T16:32:22.381Z,1012.62
2023-02-03T16:32:32.605Z,1012.63
2023-02-03T16:32:42.857Z,1012.64
2023-02-03T16:32:53.024Z,1012.64
2023-02-03T16:33:03.259Z,1012.60
2023-02-03T16:33:13.482Z,1012.59
2023-02-03T16:33:23.725Z,1012.58
2023-02-03T16:33:34.001Z,1012.55
2023-02-03T16:33:44.217Z,1012.54
2023-02-03T16:33:54.485Z,1012.50
2023-02-03T16:34:04.694Z,1012.48
2023-02-03T16:34:09.822Z,1012.49
2023-02-03T16:34:20.130Z,1012.52
2023-02-03T16:34:32.206Z,1012.55
2023-02-03T16:34:42.153Z,1012.58
2023-02-03T16:34:52.373Z,1012.58
2023-02-03T16:35:02.595Z,1012.53
2023-02-03T16:35:12.809Z,1012.54
2023-02-03T16:35:23.034Z,1012.55
2023-02-03T16:35:33.258Z,1012.54
2023-02-03T16:35:43.480Z,1012.52
2023-02-03T16:35:53.655Z,1012.52
2023-02-03T16:36:03.890Z,1012.54
2023-02-03T16:36:14.075Z,1012.55
2023-02-03T16:36:24.306Z,1012.55
2023-02-03T16:36:34.560Z,1012.55
2023-02-03T16:36:39.645Z,1012.55
2023-02-03T16:36:49.874Z,1012.55
2023-02-03T16:37:00.127Z,1012.56
2023-02-03T16:37:10.325Z,1012.57
2023-02-03T16:37:20.559Z,1012.48
2023-02-03T16:37:30.780Z,1012.39
2023-02-03T16:37:40.993Z,1012.40
2023-02-03T16:37:51.217Z,1012.39
2023-02-03T16:38:01.461Z,1012.43
2023-02-03T16:38:11.680Z,1012.47
2023-02-03T16:38:21.914Z,1012.47
2023-02-03T16:38:32.126Z,1012.45
2023-02-03T16:38:42.346Z,1012.42
2023-02-03T16:38:52.567Z,1012.41
2023-02-03T16:39:02.786Z,1012.42
2023-02-03T16:39:13.017Z,1012.42
2023-02-03T16:39:23.234Z,1012.43
2023-02-03T16:39:33.453Z,1012.42
2023-02-03T16:39:45.227Z,1012.43
2023-02-03T16:39:50.075Z,1012.42
2023-02-03T16:40:00.314Z,1012.38
2023-02-03T16:40:10.567Z,1012.39
2023-02-03T16:40:20.801Z,1012.38
2023-02-03T16:40:31.041Z,1012.38
2023-02-03T16:40:41.272Z,1012.42
2023-02-03T16:40:51.511Z,1012.45
2023-02-03T16:41:01.760Z,1012.48
2023-02-03T16:41:11.971Z,1012.49
2023-02-03T16:41:22.189Z,1012.48
2023-02-03T16:41:32.413Z,1012.46
2023-02-03T16:41:42.646Z,1012.44
2023-02-03T16:41:52.889Z,1012.43
2023-02-03T16:42:03.101Z,1012.42
2023-02-03T16:42:13.329Z,1012.43
2023-02-03T16:42:23.570Z,1012.41
2023-02-03T16:42:33.805Z,1012.40
2023-02-03T16:42:44.039Z,1012.40
2023-02-03T16:42:54.277Z,1012.42
2023-02-03T16:43:04.508Z,1012.40
2023-02-03T16:43:09.589Z,1012.40
2023-02-03T16:43:19.806Z,1012.40
2023-02-03T16:43:30.097Z,1012.42
2023-02-03T16:43:40.325Z,1012.43
2023-02-03T16:43:50.533Z,1012.45
2023-02-03T16:44:00.756Z,1012.48
2023-02-03T16:44:10.922Z,1012.52
2023-02-03T16:44:21.133Z,1012.50
2023-02-03T16:44:31.357Z,1012.52
2023-02-03T16:44:41.600Z,1012.51
2023-02-03T16:44:51.818Z,1012.51
2023-02-03T16:45:02.041Z,1012.52
2023-02-03T16:45:12.258Z,1012.54
2023-02-03T16:45:22.518Z,1012.57
2023-02-03T16:45:33.158Z,1012.53
2023-02-03T16:45:43.243Z,1012.53
2023-02-03T16:45:53.513Z,1012.56
2023-02-03T16:46:03.890Z,1012.59
2023-02-03T16:46:14.057Z,1012.57
2023-02-03T16:46:24.243Z,1012.58
2023-02-03T16:46:34.470Z,1012.54
2023-02-03T16:46:44.698Z,1012.55
2023-02-03T16:46:49.781Z,1012.55
2023-02-03T16:47:00.011Z,1012.52
2023-02-03T16:47:10.266Z,1012.50
2023-02-03T16:47:20.473Z,1012.53
2023-02-03T16:47:30.834Z,1012.56
2023-02-03T16:47:40.946Z,1012.60
2023-02-03T16:47:51.181Z,1012.65
2023-02-03T16:48:01.442Z,1012.67
2023-02-03T16:48:11.666Z,1012.70
2023-02-03T16:48:21.905Z,1012.73
2023-02-03T16:48:32.140Z,1012.73
2023-02-03T16:48:42.386Z,1012.74
2023-02-03T16:48:52.629Z,1012.74
2023-02-03T16:49:02.880Z,1012.75
2023-02-03T16:49:13.091Z,1012.76
2023-02-03T16:49:23.329Z,1012.78
2023-02-03T16:49:33.478Z,1012.81
2023-02-03T16:49:43.697Z,1012.85
2023-02-03T16:49:53.932Z,1012.86
2023-02-03T16:50:04.167Z,1012.85
2023-02-03T16:50:14.379Z,1012.87
2023-02-03T16:50:37.520Z,1012.87
2023-02-03T16:50:42.980Z,1012.89
2023-02-03T16:50:47.662Z,1012.90
2023-02-03T16:50:52.758Z,1012.91
2023-02-03T16:51:02.974Z,1012.90
2023-02-03T16:51:13.218Z,1012.92
2023-02-03T16:51:23.480Z,1012.89
2023-02-03T16:51:33.718Z,1012.91
2023-02-03T16:51:43.955Z,1012.93
2023-02-03T16:51:54.170Z,1012.94
2023-02-03T16:52:04.398Z,1012.89
2023-02-03T16:52:14.623Z,1012.88
2023-02-03T16:52:19.707Z,1012.88
2023-02-03T16:52:29.935Z,1012.88
2023-02-03T16:52:40.167Z,1012.92
2023-02-03T16:52:50.387Z,1012.94
2023-02-03T16:53:00.610Z,1012.96
2023-02-03T16:53:10.808Z,1012.97
2023-02-03T16:53:21.055Z,1013.00
2023-02-03T16:53:31.275Z,1013.01
2023-02-03T16:53:41.486Z,1013.00
2023-02-03T16:53:51.688Z,1013.00
2023-02-03T16:54:01.918Z,1012.99
2023-02-03T16:54:12.143Z,1012.99
2023-02-03T16:54:22.377Z,1013.00
2023-02-03T16:54:32.597Z,1013.02
2023-02-03T16:54:42.824Z,1013.02
2023-02-03T16:54:53.057Z,1013.03
2023-02-03T16:55:03.283Z,1013.03
2023-02-03T16:55:13.521Z,1013.03
2023-02-03T16:55:23.765Z,1013.04
2023-02-03T16:55:33.977Z,1013.06
2023-02-03T16:55:44.197Z,1013.08
2023-02-03T16:55:54.410Z,1013.10
2023-02-03T16:56:04.671Z,1013.10
2023-02-03T16:56:09.765Z,1013.11
2023-02-03T16:56:19.968Z,1013.13
2023-02-03T16:56:30.191Z,1013.15
2023-02-03T16:56:40.415Z,1013.17
2023-02-03T16:56:50.626Z,1013.17
2023-02-03T16:57:00.838Z,1013.18
2023-02-03T16:57:11.080Z,1013.19
2023-02-03T16:57:21.302Z,1013.21
2023-02-03T16:57:31.526Z,1013.20
2023-02-03T16:57:41.756Z,1013.18
2023-02-03T16:57:51.969Z,1013.19
2023-02-03T16:58:02.191Z,1013.21
2023-02-03T16:58:12.409Z,1013.24
2023-02-03T16:58:22.656Z,1013.27
2023-02-03T16:58:32.863Z,1013.29
2023-02-03T16:58:43.094Z,1013.32
2023-02-03T16:58:53.302Z,1013.35
2023-02-03T16:59:03.514Z,1013.35
2023-02-03T16:59:13.745Z,1013.34
2023-02-03T16:59:23.962Z,1013.31
2023-02-03T16:59:34.203Z,1013.31
2023-02-03T16:59:44.430Z,1013.33
2023-02-03T16:59:54.638Z,1013.33
2023-02-03T16:59:59.737Z,1013.35
2023-02-03T17:00:09.944Z,1013.37
2023-02-03T17:00:20.148Z,1013.35
2023-02-03T17:00:30.433Z,1013.34
2023-02-03T17:00:40.690Z,1013.37
2023-02-03T17:00:50.981Z,1013.38
2023-02-03T17:01:01.223Z,1013.38
2023-02-03T17:01:11.429Z,1013.38
2023-02-03T17:01:21.685Z,1013.39
2023-02-03T17:01:31.847Z,1013.40
2023-02-03T17:01:42.122Z,1013.40
2023-02-03T17:01:52.384Z,1013.39
2023-02-03T17:02:02.691Z,1013.39
2023-02-03T17:02:12.908Z,1013.39
2023-02-03T17:02:23.104Z,1013.40
2023-02-03T17:02:33.359Z,1013.39
2023-02-03T17:02:43.563Z,1013.39
2023-02-03T17:02:53.794Z,1013.39
2023-02-03T17:03:04.025Z,1013.38
2023-02-03T17:03:14.229Z,1013.37
2023-02-03T17:03:24.438Z,1013.37
2023-02-03T17:03:34.663Z,1013.36
2023-02-03T17:03:39.763Z,1013.37
2023-02-03T17:03:49.979Z,1013.37
2023-02-03T17:04:00.201Z,1013.38
2023-02-03T17:04:10.422Z,1013.39
2023-02-03T17:04:20.621Z,1013.40
2023-02-03T17:04:30.849Z,1013.40
2023-02-03T17:04:41.061Z,1013.40
2023-02-03T17:04:51.278Z,1013.42
2023-02-03T17:05:01.490Z,1013.42
2023-02-03T17:05:11.693Z,1013.41
2023-02-03T17:05:21.911Z,1013.43
2023-02-03T17:05:32.433Z,1013.43
2023-02-03T17:05:42.440Z,1013.43
2023-02-03T17:05:52.639Z,1013.43
2023-02-03T17:06:02.797Z,1013.43
2023-02-03T17:06:13.049Z,1013.43
2023-02-03T17:06:23.278Z,1013.43
2023-02-03T17:06:33.502Z,1013.44
2023-02-03T17:06:43.716Z,1013.45
2023-02-03T17:06:53.947Z,1013.44
2023-02-03T17:07:04.171Z,1013.44
2023-02-03T17:07:14.379Z,1013.46
2023-02-03T17:07:24.601Z,1013.47
2023-02-03T17:07:29.693Z,1013.48
2023-02-03T17:07:39.898Z,1013.51
2023-02-03T17:07:50.113Z,1013.52
2023-02-03T17:08:00.327Z,1013.55
2023-02-03T17:08:10.546Z,1013.56
2023-02-03T17:08:20.741Z,1013.55
2023-02-03T17:08:30.960Z,1013.56
2023-02-03T17:08:41.173Z,1013.55
2023-02-03T17:08:51.395Z,1013.55
2023-02-03T17:09:01.628Z,1013.54
2023-02-03T17:09:11.849Z,1013.55
2023-02-03T17:09:22.104Z,1013.57
2023-02-03T17:09:32.301Z,1013.59
2023-02-03T17:09:42.522Z,1013.59
2023-02-03T17:09:52.754Z,1013.59
2023-02-03T17:10:03.070Z,1013.61
2023-02-03T17:10:13.188Z,1013.62
2023-02-03T17:10:23.665Z,1013.62
2023-02-03T17:10:33.638Z,1013.61
2023-02-03T17:10:43.859Z,1013.61
2023-02-03T17:10:54.070Z,1013.61
2023-02-03T17:11:04.283Z,1013.62
2023-02-03T17:11:14.515Z,1013.63
2023-02-03T17:11:19.634Z,1013.64
2023-02-03T17:11:29.775Z,1013.64
2023-02-03T17:11:39.997Z,1013.63
2023-02-03T17:11:50.227Z,1013.63
2023-02-03T17:12:00.462Z,1013.64
2023-02-03T17:12:10.659Z,1013.64
2023-02-03T17:12:20.889Z,1013.64
2023-02-03T17:12:31.127Z,1013.65
2023-02-03T17:12:41.352Z,1013.67
2023-02-03T17:12:51.566Z,1013.68
2023-02-03T17:13:01.791Z,1013.69
2023-02-03T17:13:12.018Z,1013.69
2023-02-03T17:13:22.235Z,1013.68
2023-02-03T17:13:32.454Z,1013.68
2023-02-03T17:13:42.689Z,1013.67
2023-02-03T17:13:52.913Z,1013.67
2023-02-03T17:14:03.151Z,1013.65
2023-02-03T17:14:13.366Z,1013.63
2023-02-03T17:14:23.582Z,1013.64
2023-02-03T17:14:33.839Z,1013.64
2023-02-03T17:14:44.051Z,1013.63
2023-02-03T17:14:54.270Z,1013.62
2023-02-03T17:15:04.513Z,1013.63
2023-02-03T17:15:09.594Z,1013.63
2023-02-03T17:15:19.808Z,1013.64
2023-02-03T17:15:30.403Z,1013.62
2023-02-03T17:15:40.335Z,1013.59
2023-02-03T17:15:50.584Z,1013.60
2023-02-03T17:16:01.027Z,1013.60
2023-02-03T17:16:11.054Z,1013.60
2023-02-03T17:16:21.325Z,1013.61
2023-02-03T17:16:31.586Z,1013.60
2023-02-03T17:16:41.895Z,1013.61
2023-02-03T17:16:52.073Z,1013.63
2023-02-03T17:17:02.332Z,1013.64
2023-02-03T17:17:12.479Z,1013.65
2023-02-03T17:17:22.703Z,1013.64
2023-02-03T17:17:32.923Z,1013.63
2023-02-03T17:17:43.138Z,1013.64
2023-02-03T17:17:53.354Z,1013.62
2023-02-03T17:18:03.586Z,1013.62
2023-02-03T17:18:13.808Z,1013.61
2023-02-03T17:18:24.026Z,1013.60
2023-02-03T17:18:34.308Z,1013.58
2023-02-03T17:18:44.475Z,1013.57
2023-02-03T17:18:54.690Z,1013.57
2023-02-03T17:18:59.781Z,1013.58
2023-02-03T17:19:10.009Z,1013.57
2023-02-03T17:19:20.177Z,1013.58
2023-02-03T17:19:30.377Z,1013.58
2023-02-03T17:19:40.604Z,1013.59
2023-02-03T17:19:50.821Z,1013.58
2023-02-03T17:20:01.041Z,1013.58
2023-02-03T17:20:11.271Z,1013.58
2023-02-03T17:20:21.507Z,1013.58
2023-02-03T17:20:31.738Z,1013.56
2023-02-03T17:20:41.968Z,1013.56
2023-02-03T17:20:52.211Z,1013.57
2023-02-03T17:21:02.439Z,1013.57
2023-02-03T17:21:12.660Z,1013.56
2023-02-03T17:21:22.883Z,1013.56
2023-02-03T17:21:33.107Z,1013.57
2023-02-03T17:21:43.333Z,1013.57
2023-02-03T17:21:53.545Z,1013.56
2023-02-03T17:22:03.742Z,1013.57
2023-02-03T17:22:13.974Z,1013.57
2023-02-03T17:22:24.195Z,1013.57
2023-02-03T17:22:34.427Z,1013.58
2023-02-03T17:22:44.646Z,1013.58
2023-02-03T17:22:49.735Z,1013.58
2023-02-03T17:22:59.967Z,1013.58
2023-02-03T17:23:10.201Z,1013.56
2023-02-03T17:23:20.426Z,1013.56
2023-02-03T17:23:30.620Z,1013.55
2023-02-03T17:23:40.862Z,1013.55
2023-02-03T17:23:51.097Z,1013.54
2023-02-03T17:24:01.327Z,1013.54
2023-02-03T17:24:11.514Z,1013.55
2023-02-03T17:24:21.679Z,1013.56
2023-02-03T17:24:31.894Z,1013.57
2023-02-03T17:24:42.099Z,1013.56
2023-02-03T17:24:52.326Z,1013.57
2023-02-03T17:25:02.551Z,1013.57
2023-02-03T17:25:12.779Z,1013.57
2023-02-03T17:25:23.015Z,1013.57
2023-02-03T17:25:33.239Z,1013.57
2023-02-03T17:25:43.482Z,1013.56
2023-02-03T17:25:53.700Z,1013.54
2023-02-03T17:26:03.927Z,1013.52
2023-02-03T17:26:14.162Z,1013.51
2023-02-03T17:26:24.390Z,1013.52
2023-02-03T17:26:34.642Z,1013.51
2023-02-03T17:26:39.702Z,1013.50
2023-02-03T17:26:49.927Z,1013.50
2023-02-03T17:27:00.147Z,1013.51
